createdAt,value
2022-11-06T00:00:44.325Z,33.08
2022-11-06T00:03:14.608Z,34.53
2022-11-06T00:06:04.031Z,29.90
2022-11-06T00:08:38.006Z,36.65
2022-11-06T00:11:17.307Z,40.75
2022-11-06T00:13:49.944Z,36.97
2022-11-06T00:16:20.590Z,32.25
2022-11-06T00:18:51.839Z,36.80
2022-11-06T00:21:30.776Z,35.28
2022-11-06T00:24:02.734Z,35.70
2022-11-06T00:26:33.910Z,34.40
2022-11-06T00:31:40.643Z,35.85
2022-11-06T00:34:13.598Z,33.00
2022-11-06T00:36:44.491Z,31.38
2022-11-06T00:39:15.010Z,30.73
2022-11-06T00:41:45.382Z,32.70
2022-11-06T00:45:36.315Z,29.95
2022-11-06T00:48:07.328Z,30.73
2022-11-06T00:50:37.584Z,33.55
2022-11-06T00:53:07.828Z,35.42
2022-11-06T00:55:38.517Z,32.92
2022-11-06T00:58:10.154Z,37.57
2022-11-06T01:00:40.616Z,33.60
2022-11-06T01:03:11.426Z,36.08
2022-11-06T01:05:41.686Z,30.37
2022-11-06T01:08:12.233Z,39.22
2022-11-06T01:10:42.539Z,29.23
2022-11-06T01:13:13.006Z,34.85
2022-11-06T01:15:43.439Z,32.70
2022-11-06T01:18:14.043Z,30.57
2022-11-06T01:20:44.632Z,28.33
2022-11-06T01:23:14.892Z,32.83
2022-11-06T01:25:45.352Z,30.58
2022-11-06T01:28:15.764Z,35.83
2022-11-06T01:30:46.101Z,29.23
2022-11-06T01:33:16.334Z,31.92
2022-11-06T01:35:51.596Z,30.23
2022-11-06T01:38:21.929Z,30.48
2022-11-06T01:40:53.427Z,29.83
2022-11-06T01:45:58.155Z,32.75
2022-11-06T01:48:30.543Z,32.67
2022-11-06T01:51:02.271Z,31.75
2022-11-06T01:53:33.755Z,36.90
2022-11-06T01:56:07.366Z,31.80
2022-11-06T01:58:39.630Z,31.52
2022-11-06T02:01:13.904Z,31.42
2022-11-06T02:03:51.242Z,32.93
2022-11-06T02:06:21.823Z,35.08
2022-11-06T02:08:52.327Z,32.07
2022-11-06T02:11:23.060Z,34.13
2022-11-06T02:14:08.084Z,39.97
2022-11-06T02:16:47.176Z,42.20
2022-11-06T02:19:23.037Z,34.47
2022-11-06T02:22:28.966Z,47.60
2022-11-06T02:25:08.699Z,39.42
2022-11-06T02:27:40.628Z,44.28
2022-11-06T02:30:14.200Z,46.28
2022-11-06T02:32:50.483Z,41.88
2022-11-06T02:35:23.473Z,49.33
2022-11-06T02:37:59.402Z,57.00
2022-11-06T02:40:35.737Z,53.28
2022-11-06T02:43:11.404Z,53.45
2022-11-06T02:45:54.666Z,60.58
2022-11-06T02:48:34.103Z,44.28
2022-11-06T02:51:08.724Z,40.28
2022-11-06T02:53:43.628Z,47.92
2022-11-06T02:56:25.083Z,52.88
2022-11-06T03:01:31.596Z,41.08
2022-11-06T03:04:08.273Z,38.10
2022-11-06T03:06:49.280Z,39.42
2022-11-06T03:09:24.701Z,39.47
2022-11-06T03:12:18.528Z,36.50
2022-11-06T03:15:06.011Z,35.15
2022-11-06T03:17:52.001Z,36.00
2022-11-06T03:20:48.434Z,37.13
2022-11-06T03:23:26.514Z,38.28
2022-11-06T03:26:25.391Z,35.47
2022-11-06T03:29:06.276Z,41.17
2022-11-06T03:31:42.055Z,44.83
2022-11-06T03:34:20.470Z,37.08
2022-11-06T03:36:57.005Z,51.88
2022-11-06T03:39:35.646Z,55.75
2022-11-06T03:42:19.630Z,51.83
2022-11-06T03:44:56.332Z,46.67
2022-11-06T03:47:39.217Z,38.20
2022-11-06T03:50:18.421Z,37.33
2022-11-06T03:53:13.353Z,37.95
2022-11-06T03:55:55.923Z,38.95
2022-11-06T03:58:34.271Z,36.53
2022-11-06T04:01:09.813Z,38.42
2022-11-06T04:03:46.437Z,35.38
2022-11-06T04:06:35.155Z,39.35
2022-11-06T04:09:26.977Z,32.50
2022-11-06T04:12:18.291Z,37.95
2022-11-06T04:14:53.484Z,35.80
2022-11-06T04:17:27.304Z,33.88
2022-11-06T04:20:04.933Z,36.30
2022-11-06T04:22:41.184Z,38.28
2022-11-06T04:25:35.737Z,37.20
2022-11-06T04:28:27.606Z,33.17
2022-11-06T04:31:21.982Z,41.67
2022-11-06T04:37:09.152Z,37.20
2022-11-06T04:40:03.135Z,36.20
2022-11-06T04:42:50.777Z,36.35
2022-11-06T04:45:32.230Z,34.28
2022-11-06T04:50:38.709Z,31.42
2022-11-06T04:53:11.537Z,31.77
2022-11-06T04:55:49.713Z,39.42
2022-11-06T04:58:20.083Z,38.40
2022-11-06T05:00:53.131Z,36.38
2022-11-06T05:03:23.795Z,37.25
2022-11-06T05:05:54.866Z,34.10
2022-11-06T05:08:26.268Z,32.92
2022-11-06T05:13:27.085Z,37.67
2022-11-06T05:16:02.744Z,33.63
2022-11-06T05:18:33.122Z,33.28
2022-11-06T05:21:23.584Z,37.33
2022-11-06T05:23:53.734Z,33.15
2022-11-06T05:26:23.950Z,33.35
2022-11-06T05:28:54.274Z,46.25
2022-11-06T05:31:24.699Z,38.17
2022-11-06T05:33:54.760Z,43.53
2022-11-06T05:36:26.324Z,35.20
2022-11-06T05:41:26.409Z,32.13
2022-11-06T05:43:57.118Z,31.50
2022-11-06T05:46:48.702Z,36.83
2022-11-06T05:49:18.825Z,35.58
2022-11-06T05:51:51.351Z,31.50
2022-11-06T05:54:21.542Z,35.92
2022-11-06T05:56:52.691Z,30.92
2022-11-06T05:59:22.889Z,34.38
2022-11-06T06:01:53.884Z,32.83
2022-11-06T06:04:24.254Z,30.02
2022-11-06T06:06:54.741Z,32.22
2022-11-06T06:09:25.039Z,30.53
2022-11-06T06:11:56.715Z,34.60
2022-11-06T06:14:26.964Z,35.63
2022-11-06T06:16:57.231Z,36.50
2022-11-06T06:19:27.426Z,37.40
2022-11-06T06:21:57.602Z,30.48
2022-11-06T06:24:27.760Z,33.83
2022-11-06T06:26:58.051Z,32.65
2022-11-06T06:29:28.306Z,31.98
2022-11-06T06:31:58.656Z,31.63
2022-11-06T06:34:29.304Z,33.03
2022-11-06T06:36:59.622Z,35.83
2022-11-06T06:39:29.840Z,33.55
2022-11-06T06:42:00.999Z,33.83
2022-11-06T06:47:01.448Z,35.03
2022-11-06T06:49:31.692Z,34.60
2022-11-06T06:52:01.851Z,34.08
2022-11-06T06:54:35.083Z,33.63
2022-11-06T06:57:06.933Z,35.78
2022-11-06T06:59:37.647Z,31.92
2022-11-06T07:02:08.028Z,30.08
2022-11-06T07:04:38.310Z,30.48
2022-11-06T07:07:08.565Z,35.58
2022-11-06T07:09:39.272Z,38.75
2022-11-06T07:12:09.663Z,32.77
2022-11-06T07:14:39.882Z,38.83
2022-11-06T07:17:09.986Z,34.65
2022-11-06T07:19:40.469Z,37.50
2022-11-06T07:22:11.378Z,32.27
2022-11-06T07:24:41.942Z,32.60
2022-11-06T07:27:13.043Z,41.55
2022-11-06T07:32:13.099Z,32.03
2022-11-06T07:34:43.316Z,33.95
2022-11-06T07:37:13.580Z,33.00
2022-11-06T07:39:44.261Z,35.20
2022-11-06T07:42:14.874Z,27.63
2022-11-06T07:44:59.102Z,31.10
2022-11-06T07:47:30.397Z,28.50
2022-11-06T07:52:30.842Z,34.90
2022-11-06T07:55:01.964Z,35.88
2022-11-06T07:57:32.547Z,28.95
2022-11-06T08:00:03.333Z,30.03
2022-11-06T08:02:43.146Z,32.88
2022-11-06T08:05:13.884Z,29.50
2022-11-06T08:07:44.638Z,32.58
2022-11-06T08:10:15.018Z,34.05
2022-11-06T08:12:45.072Z,30.02
2022-11-06T08:15:15.107Z,27.83
2022-11-06T08:17:45.442Z,29.02
2022-11-06T08:20:15.635Z,30.17
2022-11-06T08:22:46.254Z,28.83
2022-11-06T08:25:16.319Z,32.27
2022-11-06T08:27:46.609Z,29.50
2022-11-06T08:30:16.886Z,31.15
2022-11-06T08:32:47.853Z,33.40
2022-11-06T08:35:18.599Z,34.30
2022-11-06T08:37:48.955Z,32.10
2022-11-06T08:40:19.447Z,30.60
2022-11-06T08:42:49.689Z,30.43
2022-11-06T08:45:21.268Z,31.63
2022-11-06T08:47:52.030Z,35.33
2022-11-06T08:50:22.443Z,42.35
2022-11-06T08:52:52.618Z,36.72
2022-11-06T08:55:22.703Z,31.02
2022-11-06T08:57:52.755Z,31.25
2022-11-06T09:00:23.392Z,29.27
2022-11-06T09:02:53.888Z,29.60
2022-11-06T09:05:24.118Z,29.60
2022-11-06T09:07:54.138Z,33.90
2022-11-06T09:10:24.423Z,32.22
2022-11-06T09:12:54.904Z,30.40
2022-11-06T09:15:25.206Z,32.45
2022-11-06T09:17:55.785Z,33.65
2022-11-06T09:20:27.661Z,31.92
2022-11-06T09:23:02.240Z,30.98
2022-11-06T09:25:33.117Z,31.42
2022-11-06T09:28:03.556Z,29.17
2022-11-06T09:30:34.915Z,29.92
2022-11-06T09:33:09.299Z,28.52
2022-11-06T09:35:44.185Z,29.13
2022-11-06T09:38:17.567Z,33.92
2022-11-06T09:41:00.189Z,31.58
2022-11-06T09:44:04.143Z,29.23
2022-11-06T09:46:49.622Z,32.60
2022-11-06T09:49:29.033Z,30.45
2022-11-06T09:52:14.533Z,34.17
2022-11-06T09:55:02.825Z,32.92
2022-11-06T09:57:39.388Z,29.95
2022-11-06T10:00:13.559Z,32.50
2022-11-06T10:02:54.227Z,36.38
2022-11-06T10:05:35.853Z,30.90
2022-11-06T10:08:10.285Z,31.02
2022-11-06T10:11:17.501Z,31.52
2022-11-06T10:14:04.348Z,34.97
2022-11-06T10:16:46.034Z,29.40
2022-11-06T10:19:28.611Z,33.28
2022-11-06T10:22:01.463Z,29.58
2022-11-06T10:24:51.915Z,31.33
2022-11-06T10:27:30.439Z,35.05
2022-11-06T10:30:07.312Z,30.02
2022-11-06T10:32:47.227Z,28.33
2022-11-06T10:35:30.486Z,31.95
2022-11-06T10:38:25.746Z,30.80
2022-11-06T10:40:58.702Z,31.77
2022-11-06T10:44:01.140Z,31.17
2022-11-06T10:46:55.964Z,33.50
2022-11-06T10:49:41.008Z,36.33
2022-11-06T10:52:11.402Z,36.85
2022-11-06T10:55:32.389Z,36.72
2022-11-06T10:58:08.534Z,42.23
2022-11-06T11:00:39.345Z,45.97
2022-11-06T11:03:35.981Z,51.47
2022-11-06T11:06:07.128Z,64.97
2022-11-06T11:08:49.390Z,46.08
2022-11-06T11:11:30.127Z,73.35
2022-11-06T11:14:03.037Z,74.60
2022-11-06T11:16:37.914Z,64.07
2022-11-06T11:19:27.714Z,64.72
2022-11-06T11:22:00.438Z,67.10
2022-11-06T11:24:31.603Z,56.55
2022-11-06T11:27:10.239Z,58.33
2022-11-06T11:29:53.164Z,49.22
2022-11-06T11:32:24.461Z,49.10
2022-11-06T11:37:33.842Z,52.63
2022-11-06T11:40:23.620Z,47.55
2022-11-06T11:42:53.869Z,46.88
2022-11-06T11:45:24.750Z,48.17
2022-11-06T11:47:55.079Z,46.47
2022-11-06T11:50:28.705Z,47.03
2022-11-06T11:53:21.749Z,41.53
2022-11-06T11:55:55.329Z,45.05
2022-11-06T11:58:31.557Z,40.08
2022-11-06T12:01:09.702Z,43.80
2022-11-06T12:03:47.462Z,40.63
2022-11-06T12:06:20.794Z,39.15
2022-11-06T12:08:55.110Z,38.42
2022-11-06T12:11:32.623Z,41.85
2022-11-06T12:14:23.922Z,43.13
2022-11-06T12:17:04.613Z,40.25
2022-11-06T12:19:39.006Z,39.83
2022-11-06T12:22:26.115Z,40.78
2022-11-06T12:25:08.032Z,45.67
2022-11-06T12:27:45.197Z,42.58
2022-11-06T12:30:18.376Z,40.67
2022-11-06T12:32:51.855Z,38.65
2022-11-06T12:35:30.130Z,37.83
2022-11-06T12:38:39.152Z,39.85
2022-11-06T12:41:18.159Z,40.17
2022-11-06T12:43:51.650Z,40.42
2022-11-06T12:46:43.426Z,42.30
2022-11-06T12:52:03.776Z,45.63
2022-11-06T12:54:44.886Z,41.38
2022-11-06T12:57:46.920Z,42.50
2022-11-06T13:00:17.398Z,41.80
2022-11-06T13:03:17.589Z,44.57
2022-11-06T13:06:00.124Z,41.40
2022-11-06T13:09:05.671Z,44.13
2022-11-06T13:11:45.218Z,41.05
2022-11-06T13:14:28.202Z,41.00
2022-11-06T13:17:09.477Z,45.35
2022-11-06T13:22:42.980Z,42.97
2022-11-06T13:25:27.712Z,41.25
2022-11-06T13:28:09.426Z,42.97
2022-11-06T13:30:41.727Z,49.03
2022-11-06T13:33:31.603Z,49.20
2022-11-06T13:36:03.166Z,43.25
2022-11-06T13:38:39.975Z,44.83
2022-11-06T13:41:36.553Z,45.53
2022-11-06T13:44:12.865Z,44.53
2022-11-06T13:47:01.540Z,44.58
2022-11-06T13:51:43.380Z,47.65
2022-11-06T13:54:29.287Z,46.72
2022-11-06T13:57:17.778Z,48.47
2022-11-06T13:59:50.871Z,54.97
2022-11-06T14:02:49.353Z,48.67
2022-11-06T14:05:59.218Z,47.20
2022-11-06T14:08:44.437Z,1051.03
2022-11-06T14:11:18.826Z,45.03
2022-11-06T14:14:28.673Z,46.95
2022-11-06T14:17:20.556Z,425.50
2022-11-06T14:19:54.088Z,562.15
2022-11-06T14:22:33.950Z,43.88
2022-11-06T14:25:24.058Z,44.20
2022-11-06T14:27:54.153Z,41.92
2022-11-06T14:31:05.839Z,42.42
2022-11-06T14:33:45.315Z,40.40
2022-11-06T14:36:28.650Z,44.20
2022-11-06T14:38:59.289Z,47.40
2022-11-06T14:41:40.066Z,40.70
2022-11-06T14:44:36.648Z,42.93
2022-11-06T14:47:09.807Z,42.60
2022-11-06T14:49:51.933Z,45.08
2022-11-06T14:52:26.278Z,43.60
2022-11-06T14:55:07.427Z,42.00
2022-11-06T14:57:37.795Z,48.08
2022-11-06T15:00:09.217Z,45.40
2022-11-06T15:02:40.175Z,48.40
2022-11-06T15:05:22.079Z,43.50
2022-11-06T15:08:04.815Z,47.20
2022-11-06T15:10:45.424Z,47.30
2022-11-06T15:13:28.303Z,44.78
2022-11-06T15:16:05.925Z,43.28
2022-11-06T15:18:38.857Z,47.00
2022-11-06T15:21:12.032Z,47.88
2022-11-06T15:24:05.487Z,48.63
2022-11-06T15:26:49.151Z,46.80
2022-11-06T15:29:19.235Z,45.97
2022-11-06T15:32:00.120Z,47.38
2022-11-06T15:37:15.955Z,49.00
2022-11-06T15:40:01.560Z,45.67
2022-11-06T15:42:36.620Z,47.40
2022-11-06T15:45:23.575Z,46.25
2022-11-06T15:48:01.559Z,48.10
2022-11-06T15:50:34.170Z,42.42
2022-11-06T15:53:16.850Z,50.10
2022-11-06T15:55:52.856Z,50.05
2022-11-06T15:58:28.104Z,46.90
2022-11-06T16:01:02.842Z,48.38
2022-11-06T16:03:35.772Z,50.28
2022-11-06T16:06:07.608Z,45.90
2022-11-06T16:08:40.355Z,49.55
2022-11-06T16:11:16.522Z,45.75
2022-11-06T16:13:51.694Z,45.55
2022-11-06T16:16:46.930Z,47.05
2022-11-06T16:19:27.919Z,46.22
2022-11-06T16:22:09.710Z,51.45
2022-11-06T16:24:57.577Z,48.45
2022-11-06T16:27:29.089Z,46.10
2022-11-06T16:30:03.257Z,48.70
2022-11-06T16:32:42.983Z,46.97
2022-11-06T16:35:36.511Z,53.28
2022-11-06T16:38:41.652Z,52.75
2022-11-06T16:41:38.167Z,50.83
2022-11-06T16:44:43.051Z,47.95
2022-11-06T16:47:14.377Z,48.40
2022-11-06T16:49:55.717Z,47.20
2022-11-06T16:55:19.233Z,49.03
2022-11-06T16:57:52.911Z,50.88
2022-11-06T17:00:23.059Z,44.05
2022-11-06T17:03:20.601Z,43.63
2022-11-06T17:05:57.775Z,48.67
2022-11-06T17:08:34.947Z,48.83
2022-11-06T17:11:23.692Z,47.63
2022-11-06T17:13:54.865Z,50.08
2022-11-06T17:16:29.958Z,45.25
2022-11-06T17:19:00.281Z,48.60
2022-11-06T17:21:31.329Z,45.67
2022-11-06T17:24:31.155Z,47.28
2022-11-06T17:26:55.803Z,50.45
2022-11-06T17:29:26.115Z,46.15
2022-11-06T17:31:56.439Z,44.75
2022-11-06T17:34:26.578Z,44.93
2022-11-06T17:36:56.721Z,47.00
2022-11-06T17:39:27.910Z,46.35
2022-11-06T17:41:58.654Z,45.20
2022-11-06T17:44:28.950Z,44.47
2022-11-06T17:46:59.203Z,45.85
2022-11-06T17:49:29.869Z,40.17
2022-11-06T17:52:02.925Z,43.85
2022-11-06T17:54:35.714Z,43.25
2022-11-06T17:57:09.437Z,46.60
2022-11-06T17:59:39.782Z,46.00
2022-11-06T18:02:10.599Z,43.50
2022-11-06T18:04:41.008Z,42.60
2022-11-06T18:07:14.649Z,42.75
2022-11-06T18:09:44.899Z,42.95
2022-11-06T18:12:19.575Z,40.78
2022-11-06T18:14:50.101Z,42.85
2022-11-06T18:17:20.413Z,38.58
2022-11-06T18:19:51.810Z,46.58
2022-11-06T18:22:21.977Z,43.85
2022-11-06T18:24:52.554Z,40.35
2022-11-06T18:27:23.031Z,43.70
2022-11-06T18:29:53.321Z,43.00
2022-11-06T18:32:23.354Z,40.47
2022-11-06T18:34:53.391Z,40.03
2022-11-06T18:37:23.464Z,40.15
2022-11-06T18:39:54.092Z,42.70
2022-11-06T18:42:24.275Z,41.65
2022-11-06T18:44:54.430Z,45.22
2022-11-06T18:47:24.456Z,40.20
2022-11-06T18:49:54.446Z,47.33
2022-11-06T18:52:51.443Z,41.28
2022-11-06T18:55:15.554Z,41.43
2022-11-06T18:57:45.607Z,40.63
2022-11-06T19:00:16.418Z,40.88
2022-11-06T19:02:47.246Z,39.78
2022-11-06T19:05:18.028Z,42.57
2022-11-06T19:07:52.814Z,43.40
2022-11-06T19:10:25.955Z,39.50
2022-11-06T19:12:59.433Z,46.43
2022-11-06T19:15:30.047Z,41.95
2022-11-06T19:18:00.755Z,40.50
2022-11-06T19:20:31.687Z,39.47
2022-11-06T19:23:01.787Z,43.72
2022-11-06T19:25:32.049Z,41.90
2022-11-06T19:28:02.464Z,43.43
2022-11-06T19:30:33.142Z,40.05
2022-11-06T19:33:03.430Z,39.83
2022-11-06T19:35:35.293Z,43.58
2022-11-06T19:38:05.661Z,39.58
2022-11-06T19:40:36.865Z,37.60
2022-11-06T19:43:09.180Z,40.75
2022-11-06T19:45:39.937Z,38.80
2022-11-06T19:48:10.084Z,38.57
2022-11-06T19:50:58.876Z,45.15
2022-11-06T19:53:31.128Z,41.85
2022-11-06T19:56:03.762Z,42.38
2022-11-06T19:58:34.660Z,42.08
2022-11-06T20:01:15.555Z,36.83
2022-11-06T20:03:46.732Z,39.63
2022-11-06T20:06:18.091Z,41.78
2022-11-06T20:08:52.704Z,39.78
2022-11-06T20:11:23.061Z,39.65
2022-11-06T20:13:53.239Z,39.20
2022-11-06T20:16:24.173Z,39.28
2022-11-06T20:18:57.131Z,40.00
2022-11-06T20:21:30.209Z,40.10
2022-11-06T20:24:00.634Z,42.20
2022-11-06T20:26:30.977Z,40.30
2022-11-06T20:29:01.252Z,39.40
2022-11-06T20:31:31.471Z,38.70
2022-11-06T20:34:01.978Z,36.80
2022-11-06T20:36:34.185Z,41.93
2022-11-06T20:39:05.041Z,38.85
2022-11-06T20:41:35.264Z,39.92
2022-11-06T20:44:05.493Z,44.30
2022-11-06T20:46:35.693Z,43.97
2022-11-06T20:49:06.405Z,38.33
2022-11-06T20:52:00.000Z,40.87
2022-11-06T20:54:27.459Z,40.65
2022-11-06T20:56:57.665Z,37.60
2022-11-06T20:59:28.214Z,39.78
2022-11-06T21:01:58.673Z,43.03
2022-11-06T21:04:28.948Z,44.63
2022-11-06T21:06:59.415Z,40.17
2022-11-06T21:09:29.607Z,44.15
2022-11-06T21:11:59.870Z,43.85
2022-11-06T21:14:31.133Z,40.20
2022-11-06T21:19:32.396Z,37.45
2022-11-06T21:22:03.041Z,41.90
2022-11-06T21:24:34.320Z,44.30
2022-11-06T21:27:04.552Z,43.70
2022-11-06T21:29:36.668Z,38.40
2022-11-06T21:32:07.014Z,40.92
2022-11-06T21:34:38.409Z,42.03
2022-11-06T21:37:08.612Z,41.22
2022-11-06T21:39:39.449Z,46.63
2022-11-06T21:42:10.986Z,38.20
2022-11-06T21:44:41.317Z,46.80
2022-11-06T21:47:11.410Z,40.83
2022-11-06T21:49:41.438Z,44.40
2022-11-06T21:52:29.633Z,43.03
2022-11-06T21:55:18.067Z,41.72
2022-11-06T21:57:49.329Z,43.33
2022-11-06T22:00:22.104Z,39.00
2022-11-06T22:02:53.345Z,36.40
2022-11-06T22:05:25.342Z,38.60
2022-11-06T22:07:55.621Z,44.50
2022-11-06T22:10:25.801Z,39.47
2022-11-06T22:12:56.603Z,39.60
2022-11-06T22:15:27.664Z,37.63
2022-11-06T22:17:57.974Z,40.80
2022-11-06T22:20:28.928Z,41.45
2022-11-06T22:22:59.660Z,44.78
2022-11-06T22:25:30.503Z,42.53
2022-11-06T22:28:00.861Z,41.47
2022-11-06T22:30:31.171Z,43.53
2022-11-06T22:33:01.499Z,41.60
2022-11-06T22:35:33.623Z,41.63
2022-11-06T22:38:03.868Z,45.97
2022-11-06T22:40:33.879Z,42.58
2022-11-06T22:43:04.240Z,40.33
2022-11-06T22:45:35.086Z,45.47
2022-11-06T22:48:05.636Z,41.83
2022-11-06T22:50:37.493Z,45.03
2022-11-06T22:53:14.628Z,42.55
2022-11-06T22:55:45.761Z,41.40
2022-11-06T22:59:26.630Z,51.47
2022-11-06T23:01:57.013Z,54.83
2022-11-06T23:04:27.315Z,49.92
2022-11-06T23:06:57.339Z,55.25
2022-11-06T23:09:28.737Z,1289.63
2022-11-06T23:12:07.419Z,44.90
2022-11-06T23:14:37.842Z,45.90
2022-11-06T23:17:07.859Z,955.33
2022-11-06T23:19:38.093Z,1007.70
2022-11-06T23:22:26.569Z,980.83
2022-11-06T23:24:58.241Z,989.97
2022-11-06T23:27:31.984Z,985.80
2022-11-06T23:30:03.363Z,992.60
2022-11-06T23:35:05.028Z,1011.67
2022-11-06T23:37:35.318Z,991.60
2022-11-06T23:40:06.650Z,982.42
2022-11-06T23:45:26.948Z,983.13
2022-11-06T23:47:57.359Z,955.35
2022-11-06T23:50:29.945Z,1008.08
2022-11-06T23:53:00.262Z,1016.90
2022-11-06T23:55:30.269Z,1007.28
2022-11-06T23:58:00.259Z,1005.67
